createdAt,value
2018-08-13T00:00:53.813Z,17.56
2018-08-13T00:03:29.307Z,17.57
2018-08-13T00:06:02.249Z,17.57
2018-08-13T00:08:35.401Z,17.56
2018-08-13T00:11:08.585Z,17.56
2018-08-13T00:13:42.459Z,17.63
2018-08-13T00:16:15.344Z,17.77
2018-08-13T00:18:48.441Z,17.91
2018-08-13T00:21:21.395Z,18.03
2018-08-13T00:23:54.464Z,18.19
2018-08-13T00:26:27.570Z,18.33
2018-08-13T00:29:01.579Z,18.52
2018-08-13T00:31:35.081Z,18.63
2018-08-13T00:34:09.728Z,18.73
2018-08-13T00:36:43.942Z,18.89
2018-08-13T00:39:17.324Z,19.00
2018-08-13T00:41:56.955Z,19.07
2018-08-13T00:44:33.810Z,19.10
2018-08-13T00:47:07.529Z,19.04
2018-08-13T00:49:42.430Z,18.97
2018-08-13T00:52:15.149Z,18.88
2018-08-13T00:54:47.828Z,18.75
2018-08-13T00:57:21.881Z,18.69
2018-08-13T00:59:54.906Z,18.68
2018-08-13T01:02:34.059Z,18.73
2018-08-13T01:05:09.270Z,18.72
2018-08-13T01:07:43.353Z,18.72
2018-08-13T01:10:20.722Z,18.75
2018-08-13T01:12:53.338Z,18.67
2018-08-13T01:15:26.514Z,18.56
2018-08-13T01:18:00.680Z,18.38
2018-08-13T01:20:34.351Z,18.29
2018-08-13T01:23:07.516Z,18.21
2018-08-13T01:25:43.640Z,18.14
2018-08-13T01:28:18.065Z,18.06
2018-08-13T01:30:54.371Z,18.07
2018-08-13T01:33:29.368Z,18.15
2018-08-13T01:36:03.749Z,18.26
2018-08-13T01:38:36.974Z,18.28
2018-08-13T01:41:10.325Z,18.30
2018-08-13T01:43:43.348Z,18.30
2018-08-13T01:46:16.924Z,18.31
2018-08-13T01:48:50.651Z,18.36
2018-08-13T01:51:23.272Z,18.41
2018-08-13T01:53:56.745Z,18.42
2018-08-13T01:56:31.169Z,18.39
2018-08-13T01:59:04.089Z,18.49
2018-08-13T02:01:38.598Z,18.53
2018-08-13T02:04:12.971Z,18.54
2018-08-13T02:06:45.623Z,18.65
2018-08-13T02:09:19.509Z,18.84
2018-08-13T02:11:53.364Z,19.08
2018-08-13T02:14:26.941Z,19.32
2018-08-13T02:17:00.904Z,19.46
2018-08-13T02:19:36.310Z,19.64
2018-08-13T02:22:09.006Z,19.77
2018-08-13T02:24:43.077Z,19.93
2018-08-13T02:27:18.699Z,20.03
2018-08-13T02:29:52.487Z,20.13
2018-08-13T02:32:25.232Z,20.23
2018-08-13T02:34:58.392Z,20.24
2018-08-13T02:37:30.969Z,20.28
2018-08-13T02:40:05.629Z,20.38
2018-08-13T02:42:38.368Z,20.34
2018-08-13T02:45:13.590Z,20.30
2018-08-13T02:47:46.705Z,20.33
2018-08-13T02:50:20.903Z,20.38
2018-08-13T02:52:53.633Z,20.34
2018-08-13T02:55:27.687Z,20.27
2018-08-13T02:58:00.724Z,20.22
2018-08-13T03:00:33.378Z,20.17
2018-08-13T03:03:07.337Z,20.15
2018-08-13T03:05:40.310Z,20.28
2018-08-13T03:08:12.821Z,20.31
2018-08-13T03:10:45.444Z,20.23
2018-08-13T03:13:18.472Z,20.14
2018-08-13T03:15:52.689Z,20.11
2018-08-13T03:18:25.228Z,20.10
2018-08-13T03:20:58.915Z,20.17
2018-08-13T03:23:31.716Z,20.20
2018-08-13T03:26:17.566Z,20.17
2018-08-13T03:28:50.124Z,20.14
2018-08-13T03:31:23.085Z,20.16
2018-08-13T03:33:56.338Z,20.20
2018-08-13T03:36:28.733Z,20.39
2018-08-13T03:39:02.332Z,20.45
2018-08-13T03:41:35.285Z,20.53
2018-08-13T03:44:10.573Z,20.62
2018-08-13T03:46:43.079Z,20.77
2018-08-13T03:49:15.630Z,20.86
2018-08-13T03:51:48.203Z,20.88
2018-08-13T03:54:21.801Z,20.88
2018-08-13T03:56:54.329Z,20.83
2018-08-13T03:59:28.263Z,20.72
2018-08-13T04:02:00.769Z,20.61
2018-08-13T04:04:34.233Z,20.51
2018-08-13T04:07:09.257Z,20.42
2018-08-13T04:09:44.508Z,20.34
2018-08-13T04:12:18.089Z,20.27
2018-08-13T04:14:52.348Z,20.20
2018-08-13T04:17:25.791Z,20.14
2018-08-13T04:20:05.088Z,20.12
2018-08-13T04:22:40.763Z,20.10
2018-08-13T04:25:13.856Z,20.08
2018-08-13T04:27:49.076Z,20.02
2018-08-13T04:30:21.890Z,19.91
2018-08-13T04:32:54.471Z,19.71
2018-08-13T04:35:27.213Z,19.43
2018-08-13T04:37:59.842Z,19.13
2018-08-13T04:40:32.410Z,18.86
2018-08-13T04:43:05.551Z,18.55
2018-08-13T04:45:38.193Z,18.19
2018-08-13T04:48:10.679Z,17.87
2018-08-13T04:50:43.764Z,17.65
2018-08-13T04:53:16.485Z,17.47
2018-08-13T04:55:49.057Z,17.31
2018-08-13T04:58:21.836Z,17.20
2018-08-13T05:00:54.276Z,17.10
2018-08-13T05:03:26.876Z,17.01
2018-08-13T05:05:59.541Z,16.96
2018-08-13T05:08:32.832Z,16.98
2018-08-13T05:11:05.793Z,17.01
2018-08-13T05:13:38.827Z,17.01
2018-08-13T05:16:11.412Z,17.01
2018-08-13T05:18:44.554Z,17.05
2018-08-13T05:21:17.759Z,17.08
2018-08-13T05:23:52.196Z,17.16
2018-08-13T05:26:26.308Z,17.19
2018-08-13T05:28:59.991Z,17.20
2018-08-13T05:31:34.326Z,17.22
2018-08-13T05:34:09.136Z,17.20
2018-08-13T05:36:41.766Z,17.20
2018-08-13T05:39:15.104Z,17.18
2018-08-13T05:41:47.759Z,17.15
2018-08-13T05:44:21.217Z,17.12
2018-08-13T05:46:55.776Z,17.14
2018-08-13T05:49:28.222Z,17.16
2018-08-13T05:52:01.817Z,17.20
2018-08-13T05:54:38.205Z,17.28
2018-08-13T05:57:11.487Z,17.31
2018-08-13T05:59:44.134Z,17.34
2018-08-13T06:02:19.353Z,17.28
2018-08-13T06:04:54.016Z,17.09
2018-08-13T06:07:31.300Z,16.91
2018-08-13T06:10:08.821Z,16.78
2018-08-13T06:12:46.368Z,16.69
2018-08-13T06:15:20.249Z,16.55
2018-08-13T06:17:54.600Z,16.45
2018-08-13T06:20:28.417Z,16.40
2018-08-13T06:23:01.837Z,16.37
2018-08-13T06:25:37.540Z,16.36
2018-08-13T06:28:12.667Z,16.45
2018-08-13T06:30:47.037Z,16.49
2018-08-13T06:33:20.912Z,16.54
2018-08-13T06:35:55.121Z,16.71
2018-08-13T06:38:27.773Z,16.83
2018-08-13T06:41:03.606Z,16.97
2018-08-13T06:43:38.100Z,17.08
2018-08-13T06:46:12.034Z,17.18
2018-08-13T06:48:46.305Z,17.28
2018-08-13T06:51:19.621Z,17.38
2018-08-13T06:53:53.109Z,17.47
2018-08-13T06:56:32.750Z,17.51
2018-08-13T06:59:08.730Z,17.60
2018-08-13T07:01:41.529Z,17.73
2018-08-13T07:04:16.286Z,17.72
2018-08-13T07:06:49.012Z,17.72
2018-08-13T07:09:22.984Z,17.71
2018-08-13T07:11:58.278Z,17.66
2018-08-13T07:14:34.701Z,17.64
2018-08-13T07:17:08.983Z,17.67
2018-08-13T07:19:44.016Z,17.77
2018-08-13T07:22:17.773Z,17.80
2018-08-13T07:24:51.013Z,17.86
2018-08-13T07:27:24.181Z,17.91
2018-08-13T07:29:57.080Z,17.94
2018-08-13T07:33:28.517Z,17.97
2018-08-13T07:36:09.977Z,17.99
2018-08-13T07:38:47.710Z,17.99
2018-08-13T07:41:26.041Z,17.96
2018-08-13T07:44:04.710Z,17.92
2018-08-13T07:46:42.798Z,17.89
2018-08-13T07:49:22.328Z,17.86
2018-08-13T07:52:00.642Z,17.79
2018-08-13T07:54:39.634Z,17.71
2018-08-13T07:57:17.955Z,17.58
2018-08-13T07:59:56.134Z,17.38
2018-08-13T08:02:35.678Z,17.16
2018-08-13T08:05:17.762Z,17.08
2018-08-13T08:07:57.746Z,17.01
2018-08-13T08:10:34.992Z,17.00
2018-08-13T08:13:12.365Z,17.05
2018-08-13T08:15:50.842Z,17.08
2018-08-13T08:18:30.261Z,17.11
2018-08-13T08:21:09.186Z,17.16
2018-08-13T08:23:46.725Z,17.21
2018-08-13T08:26:24.992Z,17.29
2018-08-13T08:29:04.900Z,17.38
2018-08-13T08:31:43.828Z,17.47
2018-08-13T08:34:23.760Z,17.50
2018-08-13T08:37:04.349Z,17.54
2018-08-13T08:39:42.257Z,17.57
2018-08-13T08:42:21.226Z,17.64
2018-08-13T08:44:58.763Z,17.76
2018-08-13T08:47:36.516Z,17.94
2018-08-13T08:50:15.395Z,18.09
2018-08-13T08:52:54.341Z,18.19
2018-08-13T08:55:32.741Z,18.23
2018-08-13T08:58:11.176Z,18.22
2018-08-13T09:00:50.603Z,18.25
2018-08-13T09:03:39.565Z,18.36
2018-08-13T09:06:17.719Z,18.64
2018-08-13T09:08:56.653Z,19.29
2018-08-13T09:11:34.768Z,19.84
2018-08-13T09:14:15.233Z,20.52
2018-08-13T09:16:54.562Z,20.85
2018-08-13T09:19:54.169Z,20.87
2018-08-13T09:22:54.596Z,20.90
2018-08-13T09:25:54.227Z,20.84
2018-08-13T09:28:55.416Z,20.64
2018-08-13T09:32:37.292Z,20.31
2018-08-13T09:35:32.119Z,20.33
2018-08-13T09:38:09.677Z,20.42
2018-08-13T09:40:48.593Z,20.72
2018-08-13T09:43:26.113Z,20.93
2018-08-13T09:46:06.176Z,20.85
2018-08-13T09:48:44.043Z,20.69
2018-08-13T09:51:21.825Z,20.55
2018-08-13T09:54:01.776Z,20.49
2018-08-13T09:56:40.813Z,20.42
2018-08-13T09:59:20.164Z,20.51
2018-08-13T10:01:59.096Z,20.63
2018-08-13T10:04:37.440Z,20.67
2018-08-13T10:07:16.531Z,20.76
2018-08-13T10:09:55.160Z,21.06
2018-08-13T10:12:32.949Z,21.36
2018-08-13T10:15:12.946Z,21.59
2018-08-13T10:17:51.336Z,22.14
2018-08-13T10:20:28.796Z,22.58
2018-08-13T10:23:13.778Z,22.62
2018-08-13T10:25:54.151Z,22.47
2018-08-13T10:28:32.692Z,22.54
2018-08-13T10:31:13.747Z,22.88
2018-08-13T10:33:51.441Z,22.95
2018-08-13T10:36:28.866Z,23.10
2018-08-13T10:39:10.761Z,22.97
2018-08-13T10:41:51.406Z,23.02
2018-08-13T10:44:30.146Z,22.92
2018-08-13T10:47:10.103Z,22.74
2018-08-13T10:49:50.373Z,22.58
2018-08-13T10:52:29.809Z,22.19
2018-08-13T10:55:14.655Z,21.92
2018-08-13T10:57:53.112Z,21.89
2018-08-13T11:00:33.950Z,21.92
2018-08-13T11:03:14.687Z,21.96
2018-08-13T11:05:52.888Z,22.16
2018-08-13T11:08:31.851Z,22.68
2018-08-13T11:11:09.858Z,23.32
2018-08-13T11:13:47.376Z,23.96
2018-08-13T11:16:28.022Z,24.53
2018-08-13T11:19:06.728Z,24.87
2018-08-13T11:21:45.582Z,24.97
2018-08-13T11:24:28.963Z,25.12
2018-08-13T11:27:12.349Z,24.78
2018-08-13T11:29:51.461Z,24.71
2018-08-13T11:32:29.845Z,24.37
2018-08-13T11:35:10.172Z,23.89
2018-08-13T11:37:49.271Z,23.47
2018-08-13T11:40:30.736Z,23.06
2018-08-13T11:43:08.169Z,22.77
2018-08-13T11:45:46.245Z,22.77
2018-08-13T11:48:25.266Z,23.22
2018-08-13T11:51:04.882Z,23.95
2018-08-13T11:53:47.394Z,24.48
2018-08-13T11:56:27.265Z,24.77
2018-08-13T11:59:06.828Z,24.94
2018-08-13T12:01:47.352Z,25.42
2018-08-13T12:04:25.119Z,25.92
2018-08-13T12:07:04.317Z,26.46
2018-08-13T12:09:46.768Z,26.73
2018-08-13T12:12:25.748Z,26.83
2018-08-13T12:15:12.076Z,26.80
2018-08-13T12:17:52.617Z,26.85
2018-08-13T12:20:34.101Z,26.41
2018-08-13T12:23:11.928Z,25.84
2018-08-13T12:25:49.463Z,25.20
2018-08-13T12:28:29.538Z,24.79
2018-08-13T12:31:07.025Z,24.43
2018-08-13T12:33:45.973Z,24.05
2018-08-13T12:36:25.831Z,23.69
2018-08-13T12:39:13.074Z,23.30
2018-08-13T12:41:55.712Z,22.51
2018-08-13T12:44:35.419Z,21.48
2018-08-13T12:47:18.753Z,20.64
2018-08-13T12:49:57.081Z,20.08
2018-08-13T12:52:45.726Z,19.76
2018-08-13T12:55:23.275Z,19.54
2018-08-13T12:58:01.936Z,19.49
2018-08-13T13:00:40.354Z,19.65
2018-08-13T13:03:17.823Z,19.88
2018-08-13T13:05:56.647Z,20.24
2018-08-13T13:08:36.885Z,20.48
2018-08-13T13:11:17.549Z,20.84
2018-08-13T13:14:07.152Z,21.07
2018-08-13T13:16:54.161Z,21.18
2018-08-13T13:19:40.353Z,21.36
2018-08-13T13:22:19.569Z,21.46
2018-08-13T13:24:59.745Z,21.50
2018-08-13T13:27:40.223Z,21.43
2018-08-13T13:30:21.589Z,21.09
2018-08-13T13:33:05.903Z,21.04
2018-08-13T13:35:44.662Z,21.02
2018-08-13T13:38:24.739Z,21.23
2018-08-13T13:41:06.318Z,21.71
2018-08-13T13:43:43.734Z,21.95
2018-08-13T13:46:22.797Z,21.77
2018-08-13T13:49:02.345Z,21.58
2018-08-13T13:51:43.809Z,21.40
2018-08-13T13:54:21.375Z,21.32
2018-08-13T13:56:59.795Z,21.31
2018-08-13T13:59:38.214Z,21.28
2018-08-13T14:02:17.237Z,21.35
2018-08-13T14:05:13.224Z,21.39
2018-08-13T14:07:51.595Z,21.40
2018-08-13T14:10:30.142Z,21.52
2018-08-13T14:13:12.489Z,21.70
2018-08-13T14:15:51.308Z,21.71
2018-08-13T14:18:30.936Z,21.58
2018-08-13T14:21:09.594Z,21.44
2018-08-13T14:23:52.539Z,21.15
2018-08-13T14:26:31.665Z,20.22
2018-08-13T14:29:09.960Z,19.18
2018-08-13T14:31:47.660Z,18.44
2018-08-13T14:34:28.484Z,17.87
2018-08-13T14:37:10.763Z,17.58
2018-08-13T14:39:48.424Z,17.35
2018-08-13T14:42:28.829Z,17.24
2018-08-13T14:45:13.941Z,17.28
2018-08-13T14:47:58.442Z,17.44
2018-08-13T14:50:38.909Z,17.76
2018-08-13T14:53:18.677Z,18.06
2018-08-13T14:55:57.031Z,18.27
2018-08-13T14:58:35.779Z,18.46
2018-08-13T15:01:22.553Z,18.59
2018-08-13T15:04:00.948Z,18.53
2018-08-13T15:06:41.492Z,18.61
2018-08-13T15:09:21.925Z,18.82
2018-08-13T15:12:00.455Z,18.83
2018-08-13T15:14:39.451Z,18.82
2018-08-13T15:17:18.612Z,19.08
2018-08-13T15:19:59.030Z,19.07
2018-08-13T15:22:37.168Z,19.13
2018-08-13T15:25:16.642Z,19.31
2018-08-13T15:27:57.012Z,19.48
2018-08-13T15:30:31.533Z,19.72
2018-08-13T15:33:07.462Z,19.95
2018-08-13T15:35:40.875Z,20.26
2018-08-13T15:38:14.477Z,20.64
2018-08-13T15:40:49.581Z,20.66
2018-08-13T15:43:22.766Z,20.54
2018-08-13T15:45:57.379Z,20.57
2018-08-13T15:48:35.100Z,20.61
2018-08-13T15:51:10.246Z,20.42
2018-08-13T15:53:46.557Z,20.31
2018-08-13T15:56:21.916Z,20.24
2018-08-13T15:58:55.361Z,20.39
2018-08-13T16:01:29.647Z,20.66
2018-08-13T16:04:13.770Z,21.22
2018-08-13T16:06:47.967Z,21.76
2018-08-13T16:09:25.443Z,22.01
2018-08-13T16:11:59.486Z,22.28
2018-08-13T16:14:33.321Z,22.30
2018-08-13T16:17:10.110Z,21.87
2018-08-13T16:19:44.556Z,21.26
2018-08-13T16:22:22.156Z,20.86
2018-08-13T16:24:56.020Z,20.78
2018-08-13T16:27:30.076Z,20.65
2018-08-13T16:30:14.757Z,20.74
2018-08-13T16:32:58.791Z,20.70
2018-08-13T16:35:33.918Z,20.71
2018-08-13T16:38:07.329Z,20.72
2018-08-13T16:40:42.261Z,20.98
2018-08-13T16:43:14.878Z,21.36
2018-08-13T16:45:49.254Z,22.04
2018-08-13T16:48:23.054Z,22.63
2018-08-13T16:50:57.359Z,22.86
2018-08-13T16:53:30.709Z,22.86
2018-08-13T16:56:08.370Z,22.85
2018-08-13T16:58:42.027Z,22.90
2018-08-13T17:01:15.829Z,22.90
2018-08-13T17:03:49.668Z,22.92
2018-08-13T17:06:23.567Z,22.98
2018-08-13T17:08:56.372Z,22.98
2018-08-13T17:11:35.477Z,23.01
2018-08-13T17:14:17.278Z,22.83
2018-08-13T17:16:50.636Z,22.56
2018-08-13T17:19:23.504Z,22.35
2018-08-13T17:21:57.548Z,22.15
2018-08-13T17:24:30.445Z,21.83
2018-08-13T17:27:03.922Z,21.51
2018-08-13T17:29:39.159Z,21.32
2018-08-13T17:32:12.489Z,21.27
2018-08-13T17:34:50.431Z,21.12
2018-08-13T17:37:25.050Z,20.99
2018-08-13T17:39:58.915Z,20.92
2018-08-13T17:42:33.831Z,21.00
2018-08-13T17:45:09.001Z,21.20
2018-08-13T17:47:44.897Z,21.30
2018-08-13T17:50:22.248Z,21.38
2018-08-13T17:52:56.888Z,21.40
2018-08-13T17:55:30.781Z,21.34
2018-08-13T17:58:06.431Z,21.23
2018-08-13T18:00:39.684Z,21.05
2018-08-13T18:03:14.709Z,20.91
2018-08-13T18:05:49.509Z,20.76
2018-08-13T18:08:23.623Z,20.56
2018-08-13T18:10:57.831Z,20.41
2018-08-13T18:13:34.501Z,20.29
2018-08-13T18:16:07.521Z,20.19
2018-08-13T18:18:40.859Z,20.08
2018-08-13T18:21:18.884Z,20.00
2018-08-13T18:24:05.126Z,19.90
2018-08-13T18:26:41.781Z,19.76
2018-08-13T18:29:17.737Z,19.65
2018-08-13T18:31:54.426Z,19.57
2018-08-13T18:34:32.327Z,19.52
2018-08-13T18:37:10.041Z,19.45
2018-08-13T18:39:58.331Z,19.36
2018-08-13T18:42:35.234Z,19.25
2018-08-13T18:45:10.125Z,19.17
2018-08-13T18:47:52.266Z,19.11
2018-08-13T18:50:31.112Z,19.06
2018-08-13T18:53:21.560Z,19.01
2018-08-13T18:56:03.371Z,18.94
2018-08-13T18:58:37.336Z,18.88
2018-08-13T19:01:22.291Z,18.80
2018-08-13T19:03:59.928Z,18.77
2018-08-13T19:06:33.090Z,18.76
2018-08-13T19:09:08.784Z,18.69
2018-08-13T19:11:43.505Z,18.60
2018-08-13T19:14:17.519Z,18.49
2018-08-13T19:16:53.393Z,18.39
2018-08-13T19:19:26.346Z,18.30
2018-08-13T19:22:04.195Z,18.22
2018-08-13T19:24:42.052Z,18.19
2018-08-13T19:27:17.394Z,18.14
2018-08-13T19:29:54.065Z,18.11
2018-08-13T19:32:28.645Z,18.08
2018-08-13T19:35:11.128Z,18.07
2018-08-13T19:37:50.610Z,18.04
2018-08-13T19:40:25.208Z,18.07
2018-08-13T19:43:04.382Z,18.07
2018-08-13T19:45:42.166Z,18.07
2018-08-13T19:48:17.843Z,18.07
2018-08-13T19:50:55.303Z,18.06
2018-08-13T19:53:45.287Z,18.02
2018-08-13T19:56:25.878Z,17.97
2018-08-13T19:59:01.080Z,17.97
2018-08-13T20:01:38.462Z,17.96
2018-08-13T20:04:14.474Z,17.95
2018-08-13T20:06:51.844Z,17.91
2018-08-13T20:09:27.104Z,17.89
2018-08-13T20:12:03.845Z,17.88
2018-08-13T20:14:40.238Z,17.86
2018-08-13T20:17:16.511Z,17.80
2018-08-13T20:19:53.962Z,17.75
2018-08-13T20:22:26.746Z,17.66
2018-08-13T20:25:01.197Z,17.52
2018-08-13T20:27:45.056Z,17.42
2018-08-13T20:30:24.923Z,17.34
2018-08-13T20:33:03.784Z,17.27
2018-08-13T20:35:53.845Z,17.17
2018-08-13T20:38:30.628Z,17.05
2018-08-13T20:41:32.880Z,17.01
2018-08-13T20:44:08.268Z,16.97
2018-08-13T20:46:45.160Z,16.93
2018-08-13T20:49:24.989Z,16.91
2018-08-13T20:52:01.701Z,16.88
2018-08-13T20:54:35.245Z,16.90
2018-08-13T20:57:13.378Z,16.88
2018-08-13T20:59:49.814Z,16.88
2018-08-13T21:02:27.357Z,16.91
2018-08-13T21:05:29.383Z,16.93
2018-08-13T21:08:14.649Z,16.95
2018-08-13T21:10:53.375Z,16.92
2018-08-13T21:13:28.923Z,16.95
2018-08-13T21:16:08.322Z,16.96
2018-08-13T21:18:47.692Z,16.97
2018-08-13T21:21:25.701Z,16.92
2018-08-13T21:24:00.430Z,16.93
2018-08-13T21:26:36.150Z,16.94
2018-08-13T21:29:14.447Z,16.90
2018-08-13T21:31:50.701Z,16.88
2018-08-13T21:34:30.960Z,16.86
2018-08-13T21:39:51.553Z,16.84
2018-08-13T21:42:30.541Z,16.88
2018-08-13T21:45:14.330Z,16.94
2018-08-13T21:47:47.056Z,16.89
2018-08-13T21:50:23.018Z,16.86
2018-08-13T21:52:57.175Z,16.83
2018-08-13T21:55:33.461Z,16.80
2018-08-13T21:58:07.651Z,16.80
2018-08-13T22:00:52.726Z,16.78
2018-08-13T22:03:30.654Z,16.77
2018-08-13T22:06:09.574Z,16.79
2018-08-13T22:08:49.107Z,16.77
2018-08-13T22:11:25.605Z,16.77
2018-08-13T22:14:00.669Z,16.80
2018-08-13T22:16:36.206Z,16.81
2018-08-13T22:19:11.741Z,16.86
2018-08-13T22:21:47.280Z,16.99
2018-08-13T22:24:43.531Z,17.12
2018-08-13T22:27:17.983Z,17.19
2018-08-13T22:29:55.935Z,17.21
2018-08-13T22:32:31.681Z,17.19
2018-08-13T22:35:09.632Z,17.18
2018-08-13T22:37:45.215Z,17.18
2018-08-13T22:40:23.899Z,17.18
2018-08-13T22:42:57.979Z,17.20
2018-08-13T22:45:33.323Z,17.22
2018-08-13T22:48:10.329Z,17.29
2018-08-13T22:50:43.903Z,17.37
2018-08-13T22:53:17.664Z,17.44
2018-08-13T22:55:51.944Z,17.49
2018-08-13T22:58:25.029Z,17.51
2018-08-13T23:01:08.500Z,17.53
2018-08-13T23:03:42.749Z,17.55
2018-08-13T23:06:18.104Z,17.57
2018-08-13T23:08:52.270Z,17.56
2018-08-13T23:11:25.003Z,17.55
2018-08-13T23:13:58.117Z,17.54
2018-08-13T23:16:38.611Z,17.60
2018-08-13T23:19:15.049Z,17.61
2018-08-13T23:21:49.414Z,17.61
2018-08-13T23:24:23.870Z,17.60
2018-08-13T23:26:56.822Z,17.61
2018-08-13T23:29:34.652Z,17.62
2018-08-13T23:32:10.511Z,17.63
2018-08-13T23:34:45.551Z,17.69
2018-08-13T23:37:22.722Z,17.69
2018-08-13T23:40:00.753Z,17.70
2018-08-13T23:42:36.058Z,17.72
2018-08-13T23:45:16.279Z,17.74
2018-08-13T23:47:50.721Z,17.81
2018-08-13T23:50:25.910Z,17.82
2018-08-13T23:53:02.989Z,17.83
2018-08-13T23:55:39.353Z,17.83
2018-08-13T23:58:14.564Z,17.85
